Airfield :
LOGIN :

Register | Disclaimer

   EN    FR    IT 

 










Legend :    VFR   Marginal VFR   IFR   Intensive IFR   Very Intensive IFR
Visi :
Ceiling :
>= 8 km
>= 3000ft
5 to 8 km
1000 to 3000 ft
1500m to 5 km
500 to 1000 ft
800 to 1500m
200 to 500 ft
< 800m
< 200 ft
Symbols :   Thunderstorms  Fog  Heavy snow  Heavy precipitations  Wind > 20 kt
SIGMETs :     Misc.  Thunderstorms  Icing  Turbulence  Mountain Waves  Volcanic Ashes







- Airport Elevation : 55 ft
- IATA code : DSA
- Download approach charts


EGCN - Robin Hood Doncaster Sheffield

CURRENT METAR :
  • 140350Z AUTO 20008KT 9999 FEW014/// SCT020/// BKN047/// 01/01 Q0988 RERA

EXPIRED METARs :
  • 140320Z AUTO 22012KT 9999 FEW009/// SCT021/// BKN040/// 02/02 Q0988 RERA
  • 140250Z AUTO 22008KT 9999 BKN018/// BKN024/// BKN031/// 02/02 Q0988
  • 140220Z 22011KT 9999 -RA SCT013 BKN018 03/01 Q0988
  • 140150Z 23009KT 9999 SCT019 BKN041 03/02 Q0988
  • 140120Z 25013KT 9999 FEW018 SCT024 BKN045 04/02 Q0988

TAF TAF EGCN
Valid from the 14 at 00:00 until the 15 at 00:00 UTC


132256Z 1400/1424 24009KT 9999 SCT020
TEMPO 1400/1412 5000 -SHRASN SHRA BKN012
PROB30
TEMPO 1400/1407 23015G25KT 3000 SHRASN BKN007
No reported NOTAMs for that airfield.
1 SIGMET reported for the London FIR (EGTT) :
 
Severe turbulence
EGTT SIGMET 01 VALID 140300/140700 EGRR
EGTT LONDON FIR SEV TURB FCST WI N5000 W00015 - N5000 W00200 - N4850 W00800 - N5100 W00800 - N5220 W00530 - N5330 W00530 - N5300 W00330 - N5100 W00330 - N5040 E00128 - N5000 W00015 SFC/FL060 STNR WKN=



MET'MAP, your aeronautical weather chart ! - Copyright ORBIFLY December 2007 - Disclaimer

ORBIFLY MET'MAP TEAM :

Programming & Development : Alexandra Zaïnal
Concept & Development : Baudouin d'Aumeries
Co-Development & Prog : Marc-Olivier Méhu
Technical & hardware support : Manuel Goepfert

Contact : metmap@orbifly.com




SOURCES & CREDITS :

   NOAA